sensor_id;sensor_type;location;lat;lon;timestamp;temperature;humidity
22738;DHT22;11536;50.860;4.286;2023-06-14T00:01:18;22.90;68.20
22738;DHT22;11536;50.860;4.286;2023-06-14T00:03:45;22.80;68.20
22738;DHT22;11536;50.860;4.286;2023-06-14T00:06:12;22.80;68.10
22738;DHT22;11536;50.860;4.286;2023-06-14T00:08:38;22.70;68.20
22738;DHT22;11536;50.860;4.286;2023-06-14T00:11:05;22.70;68.50
22738;DHT22;11536;50.860;4.286;2023-06-14T00:13:31;22.60;68.30
22738;DHT22;11536;50.860;4.286;2023-06-14T00:15:56;22.60;68.50
22738;DHT22;11536;50.860;4.286;2023-06-14T00:18:22;22.50;68.50
22738;DHT22;11536;50.860;4.286;2023-06-14T00:20:52;22.50;68.90
22738;DHT22;11536;50.860;4.286;2023-06-14T00:23:17;22.40;68.80
22738;DHT22;11536;50.860;4.286;2023-06-14T00:25:43;22.40;68.80
22738;DHT22;11536;50.860;4.286;2023-06-14T00:28:09;22.40;68.90
22738;DHT22;11536;50.860;4.286;2023-06-14T00:30:34;22.30;68.90
22738;DHT22;11536;50.860;4.286;2023-06-14T00:33:01;22.30;69.20
22738;DHT22;11536;50.860;4.286;2023-06-14T00:35:27;22.30;69.90
22738;DHT22;11536;50.860;4.286;2023-06-14T00:37:53;22.30;69.20
22738;DHT22;11536;50.860;4.286;2023-06-14T00:40:20;22.30;69.10
22738;DHT22;11536;50.860;4.286;2023-06-14T00:42:47;22.30;69.30
22738;DHT22;11536;50.860;4.286;2023-06-14T00:45:12;22.20;69.30
22738;DHT22;11536;50.860;4.286;2023-06-14T00:47:38;22.20;69.30
22738;DHT22;11536;50.860;4.286;2023-06-14T00:50:11;22.20;69.50
22738;DHT22;11536;50.860;4.286;2023-06-14T00:52:37;22.10;69.50
22738;DHT22;11536;50.860;4.286;2023-06-14T00:55:03;22.10;69.60
22738;DHT22;11536;50.860;4.286;2023-06-14T00:57:29;22.10;69.40
22738;DHT22;11536;50.860;4.286;2023-06-14T00:59:55;22.00;69.80
22738;DHT22;11536;50.860;4.286;2023-06-14T01:02:21;22.00;69.90
22738;DHT22;11536;50.860;4.286;2023-06-14T01:04:48;22.00;70.10
22738;DHT22;11536;50.860;4.286;2023-06-14T01:13:12;21.90;69.90
22738;DHT22;11536;50.860;4.286;2023-06-14T01:15:41;21.90;69.80
22738;DHT22;11536;50.860;4.286;2023-06-14T01:18:08;21.90;70.20
22738;DHT22;11536;50.860;4.286;2023-06-14T01:20:43;21.90;70.10
22738;DHT22;11536;50.860;4.286;2023-06-14T01:23:11;21.90;70.30
22738;DHT22;11536;50.860;4.286;2023-06-14T01:25:39;21.90;70.10
22738;DHT22;11536;50.860;4.286;2023-06-14T01:28:06;21.90;70.00
22738;DHT22;11536;50.860;4.286;2023-06-14T01:30:40;22.00;70.20
22738;DHT22;11536;50.860;4.286;2023-06-14T01:33:12;21.90;70.10
22738;DHT22;11536;50.860;4.286;2023-06-14T01:35:39;21.90;70.30
22738;DHT22;11536;50.860;4.286;2023-06-14T01:38:06;21.90;70.30
22738;DHT22;11536;50.860;4.286;2023-06-14T01:40:33;21.90;70.30
22738;DHT22;11536;50.860;4.286;2023-06-14T01:43:00;21.90;70.40
22738;DHT22;11536;50.860;4.286;2023-06-14T01:45:26;21.90;70.60
22738;DHT22;11536;50.860;4.286;2023-06-14T01:47:52;21.90;70.50
22738;DHT22;11536;50.860;4.286;2023-06-14T01:50:20;21.90;70.60
22738;DHT22;11536;50.860;4.286;2023-06-14T01:52:45;21.80;70.60
22738;DHT22;11536;50.860;4.286;2023-06-14T01:55:11;21.80;70.60
22738;DHT22;11536;50.860;4.286;2023-06-14T01:57:37;21.80;70.90
22738;DHT22;11536;50.860;4.286;2023-06-14T02:00:06;21.80;70.70
22738;DHT22;11536;50.860;4.286;2023-06-14T02:02:35;21.80;70.80
22738;DHT22;11536;50.860;4.286;2023-06-14T02:05:01;21.70;70.70
22738;DHT22;11536;50.860;4.286;2023-06-14T02:07:27;21.70;70.80
22738;DHT22;11536;50.860;4.286;2023-06-14T02:09:52;21.70;71.00
22738;DHT22;11536;50.860;4.286;2023-06-14T02:12:18;21.70;70.90
22738;DHT22;11536;50.860;4.286;2023-06-14T02:14:44;21.70;70.90
22738;DHT22;11536;50.860;4.286;2023-06-14T02:17:10;21.60;70.90
22738;DHT22;11536;50.860;4.286;2023-06-14T02:19:35;21.60;71.00
22738;DHT22;11536;50.860;4.286;2023-06-14T02:22:01;21.60;72.00
22738;DHT22;11536;50.860;4.286;2023-06-14T02:24:27;21.50;71.20
22738;DHT22;11536;50.860;4.286;2023-06-14T02:26:52;21.50;71.20
22738;DHT22;11536;50.860;4.286;2023-06-14T02:29:18;21.50;71.40
22738;DHT22;11536;50.860;4.286;2023-06-14T02:31:43;21.50;71.40
22738;DHT22;11536;50.860;4.286;2023-06-14T02:34:09;21.40;71.50
22738;DHT22;11536;50.860;4.286;2023-06-14T02:36:35;21.40;71.60
22738;DHT22;11536;50.860;4.286;2023-06-14T02:39:07;21.40;72.00
22738;DHT22;11536;50.860;4.286;2023-06-14T02:41:34;21.40;71.90
22738;DHT22;11536;50.860;4.286;2023-06-14T02:44:00;21.30;72.00
22738;DHT22;11536;50.860;4.286;2023-06-14T02:46:26;21.30;72.00
22738;DHT22;11536;50.860;4.286;2023-06-14T02:48:51;21.30;72.50
22738;DHT22;11536;50.860;4.286;2023-06-14T02:51:17;21.20;72.40
22738;DHT22;11536;50.860;4.286;2023-06-14T02:53:42;21.20;72.50
22738;DHT22;11536;50.860;4.286;2023-06-14T02:56:09;21.10;72.90
22738;DHT22;11536;50.860;4.286;2023-06-14T02:58:36;21.10;72.80
22738;DHT22;11536;50.860;4.286;2023-06-14T03:01:02;21.10;72.70
22738;DHT22;11536;50.860;4.286;2023-06-14T03:03:28;21.10;73.00
22738;DHT22;11536;50.860;4.286;2023-06-14T03:05:54;21.10;72.60
22738;DHT22;11536;50.860;4.286;2023-06-14T03:08:20;21.00;72.70
22738;DHT22;11536;50.860;4.286;2023-06-14T03:10:46;21.00;72.70
22738;DHT22;11536;50.860;4.286;2023-06-14T03:13:13;21.00;73.30
22738;DHT22;11536;50.860;4.286;2023-06-14T03:15:38;21.00;73.00
22738;DHT22;11536;50.860;4.286;2023-06-14T03:18:10;21.00;73.00
22738;DHT22;11536;50.860;4.286;2023-06-14T03:20:37;20.90;72.90
22738;DHT22;11536;50.860;4.286;2023-06-14T03:23:03;20.90;73.40
22738;DHT22;11536;50.860;4.286;2023-06-14T03:25:30;20.90;73.00
22738;DHT22;11536;50.860;4.286;2023-06-14T03:27:57;20.90;73.00
22738;DHT22;11536;50.860;4.286;2023-06-14T03:30:22;20.90;73.10
22738;DHT22;11536;50.860;4.286;2023-06-14T03:32:48;20.90;73.30
22738;DHT22;11536;50.860;4.286;2023-06-14T03:35:14;20.90;73.40
22738;DHT22;11536;50.860;4.286;2023-06-14T03:37:43;20.90;73.40
22738;DHT22;11536;50.860;4.286;2023-06-14T03:40:09;20.80;73.70
22738;DHT22;11536;50.860;4.286;2023-06-14T03:42:34;20.80;73.80
22738;DHT22;11536;50.860;4.286;2023-06-14T03:45:00;20.80;73.50
22738;DHT22;11536;50.860;4.286;2023-06-14T03:47:26;20.70;73.80
22738;DHT22;11536;50.860;4.286;2023-06-14T03:49:52;20.70;73.80
22738;DHT22;11536;50.860;4.286;2023-06-14T03:52:18;20.60;73.70
22738;DHT22;11536;50.860;4.286;2023-06-14T03:54:43;20.60;73.70
22738;DHT22;11536;50.860;4.286;2023-06-14T03:57:10;20.60;73.80
22738;DHT22;11536;50.860;4.286;2023-06-14T03:59:35;20.60;74.30
22738;DHT22;11536;50.860;4.286;2023-06-14T04:02:02;20.60;74.00
22738;DHT22;11536;50.860;4.286;2023-06-14T04:04:27;20.60;74.30
22738;DHT22;11536;50.860;4.286;2023-06-14T04:06:55;20.60;74.00
22738;DHT22;11536;50.860;4.286;2023-06-14T04:09:23;20.60;75.10
22738;DHT22;11536;50.860;4.286;2023-06-14T04:11:52;20.60;74.50
22738;DHT22;11536;50.860;4.286;2023-06-14T04:14:21;20.60;74.30
22738;DHT22;11536;50.860;4.286;2023-06-14T04:16:48;20.60;74.20
22738;DHT22;11536;50.860;4.286;2023-06-14T04:19:14;20.60;74.60
22738;DHT22;11536;50.860;4.286;2023-06-14T04:21:40;20.60;74.50
22738;DHT22;11536;50.860;4.286;2023-06-14T04:24:06;20.60;74.60
22738;DHT22;11536;50.860;4.286;2023-06-14T04:26:32;20.60;74.70
22738;DHT22;11536;50.860;4.286;2023-06-14T04:28:59;20.60;74.80
22738;DHT22;11536;50.860;4.286;2023-06-14T04:31:31;20.50;75.10
22738;DHT22;11536;50.860;4.286;2023-06-14T04:33:59;20.50;75.00
22738;DHT22;11536;50.860;4.286;2023-06-14T04:36:25;20.50;74.90
22738;DHT22;11536;50.860;4.286;2023-06-14T04:38:53;20.50;75.70
22738;DHT22;11536;50.860;4.286;2023-06-14T04:41:22;20.50;75.40
22738;DHT22;11536;50.860;4.286;2023-06-14T04:43:49;20.50;75.60
22738;DHT22;11536;50.860;4.286;2023-06-14T04:46:15;20.50;75.40
22738;DHT22;11536;50.860;4.286;2023-06-14T04:48:41;20.50;75.60
22738;DHT22;11536;50.860;4.286;2023-06-14T04:51:11;20.50;75.90
22738;DHT22;11536;50.860;4.286;2023-06-14T04:53:37;20.50;75.90
22738;DHT22;11536;50.860;4.286;2023-06-14T04:56:02;20.50;75.80
22738;DHT22;11536;50.860;4.286;2023-06-14T04:58:29;20.50;76.50
22738;DHT22;11536;50.860;4.286;2023-06-14T05:00:55;20.40;76.80
22738;DHT22;11536;50.860;4.286;2023-06-14T05:03:25;20.40;76.40
22738;DHT22;11536;50.860;4.286;2023-06-14T05:05:50;20.40;76.70
22738;DHT22;11536;50.860;4.286;2023-06-14T05:08:19;20.40;76.80
22738;DHT22;11536;50.860;4.286;2023-06-14T05:10:45;20.40;77.40
22738;DHT22;11536;50.860;4.286;2023-06-14T05:13:11;20.40;76.50
22738;DHT22;11536;50.860;4.286;2023-06-14T05:15:36;20.40;77.10
22738;DHT22;11536;50.860;4.286;2023-06-14T05:18:02;20.40;77.10
22738;DHT22;11536;50.860;4.286;2023-06-14T05:20:28;20.40;76.90
22738;DHT22;11536;50.860;4.286;2023-06-14T05:22:54;20.50;77.30
22738;DHT22;11536;50.860;4.286;2023-06-14T05:25:20;20.50;77.10
22738;DHT22;11536;50.860;4.286;2023-06-14T05:27:46;20.60;77.40
22738;DHT22;11536;50.860;4.286;2023-06-14T05:30:13;20.60;77.20
22738;DHT22;11536;50.860;4.286;2023-06-14T05:32:39;20.60;77.40
22738;DHT22;11536;50.860;4.286;2023-06-14T05:35:04;20.70;77.30
22738;DHT22;11536;50.860;4.286;2023-06-14T05:37:31;20.70;77.40
22738;DHT22;11536;50.860;4.286;2023-06-14T05:39:57;20.70;77.00
22738;DHT22;11536;50.860;4.286;2023-06-14T05:42:23;20.80;77.20
22738;DHT22;11536;50.860;4.286;2023-06-14T05:45:00;20.80;78.00
22738;DHT22;11536;50.860;4.286;2023-06-14T05:47:26;20.90;77.00
22738;DHT22;11536;50.860;4.286;2023-06-14T05:49:53;20.90;77.20
22738;DHT22;11536;50.860;4.286;2023-06-14T05:52:20;21.00;77.40
22738;DHT22;11536;50.860;4.286;2023-06-14T05:54:46;21.00;77.50
22738;DHT22;11536;50.860;4.286;2023-06-14T05:57:11;21.10;77.30
22738;DHT22;11536;50.860;4.286;2023-06-14T05:59:37;21.10;77.20
22738;DHT22;11536;50.860;4.286;2023-06-14T06:02:03;21.10;77.30
22738;DHT22;11536;50.860;4.286;2023-06-14T06:04:28;21.20;77.40
22738;DHT22;11536;50.860;4.286;2023-06-14T06:06:54;21.20;77.30
22738;DHT22;11536;50.860;4.286;2023-06-14T06:09:20;21.30;77.50
22738;DHT22;11536;50.860;4.286;2023-06-14T06:11:45;21.30;77.40
22738;DHT22;11536;50.860;4.286;2023-06-14T06:14:11;21.40;77.70
22738;DHT22;11536;50.860;4.286;2023-06-14T06:16:36;21.40;77.60
22738;DHT22;11536;50.860;4.286;2023-06-14T06:19:02;21.50;77.60
22738;DHT22;11536;50.860;4.286;2023-06-14T06:21:27;21.50;77.70
22738;DHT22;11536;50.860;4.286;2023-06-14T06:23:53;21.60;77.60
22738;DHT22;11536;50.860;4.286;2023-06-14T06:26:22;21.70;77.60
22738;DHT22;11536;50.860;4.286;2023-06-14T06:28:48;21.80;77.80
22738;DHT22;11536;50.860;4.286;2023-06-14T06:31:13;21.80;77.60
22738;DHT22;11536;50.860;4.286;2023-06-14T06:33:39;21.80;77.80
22738;DHT22;11536;50.860;4.286;2023-06-14T06:36:05;21.90;77.50
22738;DHT22;11536;50.860;4.286;2023-06-14T06:38:31;21.90;77.60
22738;DHT22;11536;50.860;4.286;2023-06-14T06:40:56;22.00;77.70
22738;DHT22;11536;50.860;4.286;2023-06-14T06:43:22;22.00;77.70
22738;DHT22;11536;50.860;4.286;2023-06-14T06:45:48;22.10;77.90
22738;DHT22;11536;50.860;4.286;2023-06-14T06:48:13;22.10;77.70
22738;DHT22;11536;50.860;4.286;2023-06-14T06:50:39;22.20;78.50
22738;DHT22;11536;50.860;4.286;2023-06-14T06:53:05;22.20;77.90
22738;DHT22;11536;50.860;4.286;2023-06-14T06:55:32;22.30;77.70
22738;DHT22;11536;50.860;4.286;2023-06-14T06:57:57;22.40;77.50
22738;DHT22;11536;50.860;4.286;2023-06-14T07:00:23;22.40;77.50
22738;DHT22;11536;50.860;4.286;2023-06-14T07:02:49;22.50;77.50
22738;DHT22;11536;50.860;4.286;2023-06-14T07:05:14;22.50;77.10
22738;DHT22;11536;50.860;4.286;2023-06-14T07:07:40;22.60;77.00
22738;DHT22;11536;50.860;4.286;2023-06-14T07:10:06;22.60;77.10
22738;DHT22;11536;50.860;4.286;2023-06-14T07:12:33;22.70;77.00
22738;DHT22;11536;50.860;4.286;2023-06-14T07:15:01;22.70;77.30
22738;DHT22;11536;50.860;4.286;2023-06-14T07:17:27;22.80;77.50
22738;DHT22;11536;50.860;4.286;2023-06-14T07:19:52;22.90;77.30
22738;DHT22;11536;50.860;4.286;2023-06-14T07:22:18;22.90;77.20
22738;DHT22;11536;50.860;4.286;2023-06-14T07:24:44;23.00;77.30
22738;DHT22;11536;50.860;4.286;2023-06-14T07:27:10;23.00;77.30
22738;DHT22;11536;50.860;4.286;2023-06-14T07:29:36;23.20;77.60
22738;DHT22;11536;50.860;4.286;2023-06-14T07:32:02;23.20;77.30
22738;DHT22;11536;50.860;4.286;2023-06-14T07:34:28;23.20;77.00
22738;DHT22;11536;50.860;4.286;2023-06-14T07:36:53;23.30;77.30
22738;DHT22;11536;50.860;4.286;2023-06-14T07:39:19;23.30;77.10
22738;DHT22;11536;50.860;4.286;2023-06-14T07:41:45;23.30;77.10
22738;DHT22;11536;50.860;4.286;2023-06-14T07:44:11;23.40;77.10
22738;DHT22;11536;50.860;4.286;2023-06-14T07:46:37;23.40;77.20
22738;DHT22;11536;50.860;4.286;2023-06-14T07:49:03;23.50;77.20
22738;DHT22;11536;50.860;4.286;2023-06-14T07:51:29;23.60;77.00
22738;DHT22;11536;50.860;4.286;2023-06-14T07:53:55;23.60;76.70
22738;DHT22;11536;50.860;4.286;2023-06-14T07:56:21;23.60;77.00
22738;DHT22;11536;50.860;4.286;2023-06-14T07:58:48;23.60;77.00
22738;DHT22;11536;50.860;4.286;2023-06-14T08:01:14;23.70;76.80
22738;DHT22;11536;50.860;4.286;2023-06-14T08:03:40;23.80;77.20
22738;DHT22;11536;50.860;4.286;2023-06-14T08:06:06;23.90;77.50
22738;DHT22;11536;50.860;4.286;2023-06-14T08:08:32;24.00;77.00
22738;DHT22;11536;50.860;4.286;2023-06-14T08:10:58;24.00;76.60
22738;DHT22;11536;50.860;4.286;2023-06-14T08:13:24;24.20;76.70
22738;DHT22;11536;50.860;4.286;2023-06-14T08:15:50;24.20;77.40
22738;DHT22;11536;50.860;4.286;2023-06-14T08:18:15;24.20;76.30
22738;DHT22;11536;50.860;4.286;2023-06-14T08:20:41;24.30;76.90
22738;DHT22;11536;50.860;4.286;2023-06-14T08:23:07;24.40;77.30
22738;DHT22;11536;50.860;4.286;2023-06-14T08:25:33;24.50;77.10
22738;DHT22;11536;50.860;4.286;2023-06-14T08:27:59;24.50;77.10
22738;DHT22;11536;50.860;4.286;2023-06-14T08:30:25;24.50;76.70
22738;DHT22;11536;50.860;4.286;2023-06-14T08:32:50;24.60;76.80
22738;DHT22;11536;50.860;4.286;2023-06-14T08:35:17;24.60;76.80
22738;DHT22;11536;50.860;4.286;2023-06-14T08:37:43;24.70;75.70
22738;DHT22;11536;50.860;4.286;2023-06-14T08:40:21;24.70;75.30
22738;DHT22;11536;50.860;4.286;2023-06-14T08:46:10;24.90;75.30
22738;DHT22;11536;50.860;4.286;2023-06-14T08:48:37;25.00;76.30
22738;DHT22;11536;50.860;4.286;2023-06-14T08:51:04;25.00;76.40
22738;DHT22;11536;50.860;4.286;2023-06-14T08:53:31;25.10;76.00
22738;DHT22;11536;50.860;4.286;2023-06-14T08:56:00;25.10;75.00
22738;DHT22;11536;50.860;4.286;2023-06-14T08:58:28;25.10;74.70
22738;DHT22;11536;50.860;4.286;2023-06-14T09:00:57;25.10;75.00
22738;DHT22;11536;50.860;4.286;2023-06-14T09:03:24;25.10;75.00
22738;DHT22;11536;50.860;4.286;2023-06-14T09:05:56;25.20;75.00
22738;DHT22;11536;50.860;4.286;2023-06-14T09:08:22;25.20;75.00
22738;DHT22;11536;50.860;4.286;2023-06-14T09:10:48;25.20;75.40
22738;DHT22;11536;50.860;4.286;2023-06-14T09:13:14;25.20;75.00
22738;DHT22;11536;50.860;4.286;2023-06-14T09:15:40;25.30;75.40
22738;DHT22;11536;50.860;4.286;2023-06-14T09:18:05;25.30;75.80
22738;DHT22;11536;50.860;4.286;2023-06-14T09:20:32;25.40;75.60
22738;DHT22;11536;50.860;4.286;2023-06-14T09:22:58;25.40;75.30
22738;DHT22;11536;50.860;4.286;2023-06-14T09:25:24;25.40;74.90
22738;DHT22;11536;50.860;4.286;2023-06-14T09:27:51;25.40;74.50
22738;DHT22;11536;50.860;4.286;2023-06-14T09:30:20;25.40;74.90
22738;DHT22;11536;50.860;4.286;2023-06-14T09:32:46;25.50;75.20
22738;DHT22;11536;50.860;4.286;2023-06-14T09:35:12;25.50;75.20
22738;DHT22;11536;50.860;4.286;2023-06-14T09:37:38;25.50;73.60
22738;DHT22;11536;50.860;4.286;2023-06-14T09:40:04;25.50;74.70
22738;DHT22;11536;50.860;4.286;2023-06-14T09:42:31;25.60;75.00
22738;DHT22;11536;50.860;4.286;2023-06-14T09:44:57;25.60;75.50
22738;DHT22;11536;50.860;4.286;2023-06-14T09:47:24;25.70;75.90
22738;DHT22;11536;50.860;4.286;2023-06-14T09:49:51;25.70;75.80
22738;DHT22;11536;50.860;4.286;2023-06-14T09:52:20;25.80;76.40
22738;DHT22;11536;50.860;4.286;2023-06-14T09:54:47;25.90;76.30
22738;DHT22;11536;50.860;4.286;2023-06-14T09:57:14;26.00;75.50
22738;DHT22;11536;50.860;4.286;2023-06-14T09:59:45;26.00;74.90
22738;DHT22;11536;50.860;4.286;2023-06-14T10:02:26;26.00;75.80
22738;DHT22;11536;50.860;4.286;2023-06-14T10:05:03;26.00;75.70
22738;DHT22;11536;50.860;4.286;2023-06-14T10:07:42;26.00;74.80
22738;DHT22;11536;50.860;4.286;2023-06-14T10:10:10;26.00;75.10
22738;DHT22;11536;50.860;4.286;2023-06-14T10:12:36;26.00;75.10
22738;DHT22;11536;50.860;4.286;2023-06-14T10:15:03;26.10;75.10
22738;DHT22;11536;50.860;4.286;2023-06-14T10:20:26;26.10;74.60
22738;DHT22;11536;50.860;4.286;2023-06-14T10:23:05;26.10;72.70
22738;DHT22;11536;50.860;4.286;2023-06-14T10:25:33;26.10;73.50
22738;DHT22;11536;50.860;4.286;2023-06-14T10:28:22;26.20;73.50
22738;DHT22;11536;50.860;4.286;2023-06-14T10:33:29;26.10;73.40
22738;DHT22;11536;50.860;4.286;2023-06-14T10:36:07;26.10;71.70
22738;DHT22;11536;50.860;4.286;2023-06-14T10:38:33;26.10;71.20
22738;DHT22;11536;50.860;4.286;2023-06-14T10:41:00;26.10;71.40
22738;DHT22;11536;50.860;4.286;2023-06-14T10:43:26;26.10;72.80
22738;DHT22;11536;50.860;4.286;2023-06-14T10:46:17;26.10;71.80
22738;DHT22;11536;50.860;4.286;2023-06-14T10:48:44;26.10;72.00
22738;DHT22;11536;50.860;4.286;2023-06-14T10:51:20;26.20;71.50
22738;DHT22;11536;50.860;4.286;2023-06-14T10:53:50;26.20;70.60
22738;DHT22;11536;50.860;4.286;2023-06-14T10:56:29;26.30;71.40
22738;DHT22;11536;50.860;4.286;2023-06-14T10:58:57;26.30;70.10
22738;DHT22;11536;50.860;4.286;2023-06-14T11:01:37;26.30;70.90
22738;DHT22;11536;50.860;4.286;2023-06-14T11:04:10;26.40;71.70
22738;DHT22;11536;50.860;4.286;2023-06-14T11:06:50;26.50;71.50
22738;DHT22;11536;50.860;4.286;2023-06-14T11:12:41;26.70;71.90
22738;DHT22;11536;50.860;4.286;2023-06-14T11:15:08;26.70;70.40
22738;DHT22;11536;50.860;4.286;2023-06-14T11:17:33;26.70;68.90
22738;DHT22;11536;50.860;4.286;2023-06-14T11:20:09;26.60;69.00
22738;DHT22;11536;50.860;4.286;2023-06-14T11:22:41;26.60;68.70
22738;DHT22;11536;50.860;4.286;2023-06-14T11:25:13;26.60;69.70
22738;DHT22;11536;50.860;4.286;2023-06-14T11:27:41;26.60;70.20
22738;DHT22;11536;50.860;4.286;2023-06-14T11:30:07;26.70;69.70
22738;DHT22;11536;50.860;4.286;2023-06-14T11:32:36;26.80;69.10
22738;DHT22;11536;50.860;4.286;2023-06-14T11:35:03;26.80;69.80
22738;DHT22;11536;50.860;4.286;2023-06-14T11:37:33;26.70;67.40
22738;DHT22;11536;50.860;4.286;2023-06-14T11:40:02;26.70;67.90
22738;DHT22;11536;50.860;4.286;2023-06-14T11:42:30;26.70;68.80
22738;DHT22;11536;50.860;4.286;2023-06-14T11:44:56;26.70;67.90
22738;DHT22;11536;50.860;4.286;2023-06-14T11:47:22;26.90;68.80
22738;DHT22;11536;50.860;4.286;2023-06-14T11:49:48;26.90;68.20
22738;DHT22;11536;50.860;4.286;2023-06-14T11:52:14;27.00;68.20
22738;DHT22;11536;50.860;4.286;2023-06-14T11:54:40;27.00;68.40
22738;DHT22;11536;50.860;4.286;2023-06-14T11:57:07;27.00;68.00
22738;DHT22;11536;50.860;4.286;2023-06-14T11:59:42;27.00;67.90
22738;DHT22;11536;50.860;4.286;2023-06-14T12:02:09;27.10;67.80
22738;DHT22;11536;50.860;4.286;2023-06-14T12:04:35;27.10;66.40
22738;DHT22;11536;50.860;4.286;2023-06-14T12:07:11;27.10;66.80
22738;DHT22;11536;50.860;4.286;2023-06-14T12:12:36;27.10;65.40
22738;DHT22;11536;50.860;4.286;2023-06-14T12:15:06;27.20;66.90
22738;DHT22;11536;50.860;4.286;2023-06-14T12:17:34;27.30;67.60
22738;DHT22;11536;50.860;4.286;2023-06-14T12:20:28;27.30;66.00
22738;DHT22;11536;50.860;4.286;2023-06-14T12:22:55;27.40;67.50
22738;DHT22;11536;50.860;4.286;2023-06-14T12:25:35;27.50;67.50
22738;DHT22;11536;50.860;4.286;2023-06-14T12:28:09;27.70;68.70
22738;DHT22;11536;50.860;4.286;2023-06-14T12:30:38;27.90;67.30
22738;DHT22;11536;50.860;4.286;2023-06-14T12:33:05;27.90;66.60
22738;DHT22;11536;50.860;4.286;2023-06-14T12:35:31;28.00;66.30
22738;DHT22;11536;50.860;4.286;2023-06-14T12:37:57;28.00;65.10
22738;DHT22;11536;50.860;4.286;2023-06-14T12:40:23;28.00;66.00
22738;DHT22;11536;50.860;4.286;2023-06-14T12:42:48;28.00;65.40
22738;DHT22;11536;50.860;4.286;2023-06-14T12:45:15;28.00;66.00
22738;DHT22;11536;50.860;4.286;2023-06-14T12:47:41;28.00;63.90
22738;DHT22;11536;50.860;4.286;2023-06-14T12:50:08;27.90;63.80
22738;DHT22;11536;50.860;4.286;2023-06-14T12:52:33;27.80;62.90
22738;DHT22;11536;50.860;4.286;2023-06-14T12:55:04;27.80;64.50
22738;DHT22;11536;50.860;4.286;2023-06-14T12:57:30;27.80;63.80
22738;DHT22;11536;50.860;4.286;2023-06-14T12:59:56;27.90;64.40
22738;DHT22;11536;50.860;4.286;2023-06-14T13:02:22;28.00;64.50
22738;DHT22;11536;50.860;4.286;2023-06-14T13:04:49;28.00;64.70
22738;DHT22;11536;50.860;4.286;2023-06-14T13:07:14;28.00;64.00
22738;DHT22;11536;50.860;4.286;2023-06-14T13:09:40;28.10;65.40
22738;DHT22;11536;50.860;4.286;2023-06-14T13:12:07;28.20;65.80
22738;DHT22;11536;50.860;4.286;2023-06-14T13:14:33;28.30;65.10
22738;DHT22;11536;50.860;4.286;2023-06-14T13:16:58;28.40;65.00
22738;DHT22;11536;50.860;4.286;2023-06-14T13:19:24;28.40;65.70
22738;DHT22;11536;50.860;4.286;2023-06-14T13:21:50;28.50;65.40
22738;DHT22;11536;50.860;4.286;2023-06-14T13:24:16;28.60;65.30
22738;DHT22;11536;50.860;4.286;2023-06-14T13:26:42;28.60;64.80
22738;DHT22;11536;50.860;4.286;2023-06-14T13:29:08;28.50;64.50
22738;DHT22;11536;50.860;4.286;2023-06-14T13:31:33;28.50;64.10
22738;DHT22;11536;50.860;4.286;2023-06-14T13:33:59;28.60;63.70
22738;DHT22;11536;50.860;4.286;2023-06-14T13:36:24;28.60;63.60
22738;DHT22;11536;50.860;4.286;2023-06-14T13:38:50;28.50;62.50
22738;DHT22;11536;50.860;4.286;2023-06-14T13:41:17;28.50;63.70
22738;DHT22;11536;50.860;4.286;2023-06-14T13:43:43;28.50;63.90
22738;DHT22;11536;50.860;4.286;2023-06-14T13:46:09;28.60;64.60
22738;DHT22;11536;50.860;4.286;2023-06-14T13:48:34;28.60;62.90
22738;DHT22;11536;50.860;4.286;2023-06-14T13:51:00;28.60;63.70
22738;DHT22;11536;50.860;4.286;2023-06-14T13:53:31;28.60;62.50
22738;DHT22;11536;50.860;4.286;2023-06-14T13:55:57;28.50;62.80
22738;DHT22;11536;50.860;4.286;2023-06-14T13:58:23;28.40;62.50
22738;DHT22;11536;50.860;4.286;2023-06-14T14:00:49;28.40;62.80
22738;DHT22;11536;50.860;4.286;2023-06-14T14:03:15;28.30;62.50
22738;DHT22;11536;50.860;4.286;2023-06-14T14:05:40;28.20;61.30
22738;DHT22;11536;50.860;4.286;2023-06-14T14:08:09;28.20;62.30
22738;DHT22;11536;50.860;4.286;2023-06-14T14:10:35;28.20;62.10
22738;DHT22;11536;50.860;4.286;2023-06-14T14:13:01;28.30;61.80
22738;DHT22;11536;50.860;4.286;2023-06-14T14:15:30;28.30;62.00
22738;DHT22;11536;50.860;4.286;2023-06-14T14:17:56;28.20;61.40
22738;DHT22;11536;50.860;4.286;2023-06-14T14:20:23;28.30;61.80
22738;DHT22;11536;50.860;4.286;2023-06-14T14:22:49;28.30;62.00
22738;DHT22;11536;50.860;4.286;2023-06-14T14:25:18;28.30;62.50
22738;DHT22;11536;50.860;4.286;2023-06-14T14:27:44;28.40;62.50
22738;DHT22;11536;50.860;4.286;2023-06-14T14:30:10;28.50;62.00
22738;DHT22;11536;50.860;4.286;2023-06-14T14:32:35;28.50;61.30
22738;DHT22;11536;50.860;4.286;2023-06-14T14:35:01;28.40;60.60
22738;DHT22;11536;50.860;4.286;2023-06-14T14:37:26;28.30;60.50
22738;DHT22;11536;50.860;4.286;2023-06-14T14:39:52;28.30;60.60
22738;DHT22;11536;50.860;4.286;2023-06-14T14:42:18;28.30;61.70
22738;DHT22;11536;50.860;4.286;2023-06-14T14:44:47;28.30;60.70
22738;DHT22;11536;50.860;4.286;2023-06-14T14:47:13;28.30;61.40
22738;DHT22;11536;50.860;4.286;2023-06-14T14:49:38;28.30;59.90
22738;DHT22;11536;50.860;4.286;2023-06-14T14:52:04;28.10;59.70
22738;DHT22;11536;50.860;4.286;2023-06-14T14:54:30;28.10;59.50
22738;DHT22;11536;50.860;4.286;2023-06-14T14:56:55;28.10;60.00
22738;DHT22;11536;50.860;4.286;2023-06-14T14:59:21;28.10;59.00
22738;DHT22;11536;50.860;4.286;2023-06-14T15:01:50;28.10;59.30
22738;DHT22;11536;50.860;4.286;2023-06-14T15:04:16;27.90;58.20
22738;DHT22;11536;50.860;4.286;2023-06-14T15:06:41;27.90;58.40
22738;DHT22;11536;50.860;4.286;2023-06-14T15:09:08;27.80;58.80
22738;DHT22;11536;50.860;4.286;2023-06-14T15:11:33;27.80;58.70
22738;DHT22;11536;50.860;4.286;2023-06-14T15:13:59;27.80;59.10
22738;DHT22;11536;50.860;4.286;2023-06-14T15:16:25;27.70;58.30
22738;DHT22;11536;50.860;4.286;2023-06-14T15:18:51;27.70;58.50
22738;DHT22;11536;50.860;4.286;2023-06-14T15:21:17;27.70;59.30
22738;DHT22;11536;50.860;4.286;2023-06-14T15:23:45;27.70;58.30
22738;DHT22;11536;50.860;4.286;2023-06-14T15:26:11;27.70;58.20
22738;DHT22;11536;50.860;4.286;2023-06-14T15:28:37;27.70;58.50
22738;DHT22;11536;50.860;4.286;2023-06-14T15:31:03;27.70;58.90
22738;DHT22;11536;50.860;4.286;2023-06-14T15:33:29;27.70;58.90
22738;DHT22;11536;50.860;4.286;2023-06-14T15:35:54;27.70;58.70
22738;DHT22;11536;50.860;4.286;2023-06-14T15:38:20;27.70;58.80
22738;DHT22;11536;50.860;4.286;2023-06-14T15:40:48;27.60;58.60
22738;DHT22;11536;50.860;4.286;2023-06-14T15:43:13;27.70;59.20
22738;DHT22;11536;50.860;4.286;2023-06-14T15:45:39;27.70;58.50
22738;DHT22;11536;50.860;4.286;2023-06-14T15:48:05;27.60;58.20
22738;DHT22;11536;50.860;4.286;2023-06-14T15:50:31;27.50;57.50